sensor_id;sensor_type;location;lat;lon;timestamp;temperature;humidity
51579;DHT22;47998;53.242;6.386;2023-10-13T00:00:29;13.20;99.90
51579;DHT22;47998;53.242;6.386;2023-10-13T00:02:58;13.30;99.90
51579;DHT22;47998;53.242;6.386;2023-10-13T00:05:31;13.30;99.90
51579;DHT22;47998;53.242;6.386;2023-10-13T00:08:00;13.40;99.90
51579;DHT22;47998;53.242;6.386;2023-10-13T00:10:32;13.30;99.90
51579;DHT22;47998;53.242;6.386;2023-10-13T00:13:02;13.40;99.90
51579;DHT22;47998;53.242;6.386;2023-10-13T00:15:47;13.50;99.90
51579;DHT22;47998;53.242;6.386;2023-10-13T00:18:30;13.50;99.90
51579;DHT22;47998;53.242;6.386;2023-10-13T00:21:00;13.60;99.90
51579;DHT22;47998;53.242;6.386;2023-10-13T00:23:26;13.50;99.90
51579;DHT22;47998;53.242;6.386;2023-10-13T00:25:58;13.60;99.90
51579;DHT22;47998;53.242;6.386;2023-10-13T00:28:26;14.00;99.90
51579;DHT22;47998;53.242;6.386;2023-10-13T00:31:01;14.10;99.90
51579;DHT22;47998;53.242;6.386;2023-10-13T00:33:37;14.20;99.90
51579;DHT22;47998;53.242;6.386;2023-10-13T00:36:04;14.30;99.90
51579;DHT22;47998;53.242;6.386;2023-10-13T00:38:31;14.30;99.90
51579;DHT22;47998;53.242;6.386;2023-10-13T00:40:57;14.40;99.90
51579;DHT22;47998;53.242;6.386;2023-10-13T00:43:29;14.50;99.90
51579;DHT22;47998;53.242;6.386;2023-10-13T00:46:00;14.40;99.90
51579;DHT22;47998;53.242;6.386;2023-10-13T00:48:34;14.60;99.90
51579;DHT22;47998;53.242;6.386;2023-10-13T00:51:02;14.60;99.90
51579;DHT22;47998;53.242;6.386;2023-10-13T00:53:30;14.70;99.90
51579;DHT22;47998;53.242;6.386;2023-10-13T00:56:01;14.60;99.90
51579;DHT22;47998;53.242;6.386;2023-10-13T00:58:37;14.80;99.90
51579;DHT22;47998;53.242;6.386;2023-10-13T01:01:05;14.60;99.90
51579;DHT22;47998;53.242;6.386;2023-10-13T01:06:17;14.90;99.90
51579;DHT22;47998;53.242;6.386;2023-10-13T01:08:47;14.90;99.90
51579;DHT22;47998;53.242;6.386;2023-10-13T01:11:19;14.70;99.90
51579;DHT22;47998;53.242;6.386;2023-10-13T01:13:49;14.90;99.90
51579;DHT22;47998;53.242;6.386;2023-10-13T01:16:20;14.80;99.90
51579;DHT22;47998;53.242;6.386;2023-10-13T01:18:52;15.10;99.90
51579;DHT22;47998;53.242;6.386;2023-10-13T01:21:19;15.00;99.90
51579;DHT22;47998;53.242;6.386;2023-10-13T01:23:53;15.10;99.90
51579;DHT22;47998;53.242;6.386;2023-10-13T01:26:19;14.90;99.90
51579;DHT22;47998;53.242;6.386;2023-10-13T01:28:56;15.20;99.90
51579;DHT22;47998;53.242;6.386;2023-10-13T01:31:22;15.00;99.90
51579;DHT22;47998;53.242;6.386;2023-10-13T01:33:53;15.10;99.90
51579;DHT22;47998;53.242;6.386;2023-10-13T01:36:22;15.30;99.90
51579;DHT22;47998;53.242;6.386;2023-10-13T01:38:49;15.30;99.90
51579;DHT22;47998;53.242;6.386;2023-10-13T01:41:19;15.10;99.90
51579;DHT22;47998;53.242;6.386;2023-10-13T01:43:45;15.20;99.90
51579;DHT22;47998;53.242;6.386;2023-10-13T01:46:11;15.30;99.90
51579;DHT22;47998;53.242;6.386;2023-10-13T01:48:39;15.20;99.90
51579;DHT22;47998;53.242;6.386;2023-10-13T01:51:06;15.40;99.90
51579;DHT22;47998;53.242;6.386;2023-10-13T01:53:36;15.50;99.90
51579;DHT22;47998;53.242;6.386;2023-10-13T01:56:03;15.40;99.90
51579;DHT22;47998;53.242;6.386;2023-10-13T01:58:39;15.40;99.90
51579;DHT22;47998;53.242;6.386;2023-10-13T02:01:09;15.50;99.90
51579;DHT22;47998;53.242;6.386;2023-10-13T02:03:36;15.50;99.90
51579;DHT22;47998;53.242;6.386;2023-10-13T02:06:07;15.40;99.90
51579;DHT22;47998;53.242;6.386;2023-10-13T02:08:36;15.60;99.90
51579;DHT22;47998;53.242;6.386;2023-10-13T02:11:08;15.50;99.90
51579;DHT22;47998;53.242;6.386;2023-10-13T02:13:35;15.50;99.90
51579;DHT22;47998;53.242;6.386;2023-10-13T02:16:07;15.60;99.90
51579;DHT22;47998;53.242;6.386;2023-10-13T02:18:33;15.60;99.90
51579;DHT22;47998;53.242;6.386;2023-10-13T02:21:09;15.70;99.90
51579;DHT22;47998;53.242;6.386;2023-10-13T02:23:41;15.70;99.90
51579;DHT22;47998;53.242;6.386;2023-10-13T02:26:12;15.70;99.90
51579;DHT22;47998;53.242;6.386;2023-10-13T02:28:41;15.70;99.90
51579;DHT22;47998;53.242;6.386;2023-10-13T02:31:09;15.70;99.90
51579;DHT22;47998;53.242;6.386;2023-10-13T02:33:35;15.70;99.90
51579;DHT22;47998;53.242;6.386;2023-10-13T02:36:10;15.70;99.90
51579;DHT22;47998;53.242;6.386;2023-10-13T02:38:38;15.70;99.90
51579;DHT22;47998;53.242;6.386;2023-10-13T02:41:18;15.80;99.90
51579;DHT22;47998;53.242;6.386;2023-10-13T02:43:55;15.70;99.90
51579;DHT22;47998;53.242;6.386;2023-10-13T02:46:21;15.70;99.90
51579;DHT22;47998;53.242;6.386;2023-10-13T02:48:48;15.70;99.90
51579;DHT22;47998;53.242;6.386;2023-10-13T02:51:19;15.70;99.90
51579;DHT22;47998;53.242;6.386;2023-10-13T02:53:57;15.70;99.90
51579;DHT22;47998;53.242;6.386;2023-10-13T02:56:29;15.70;99.90
51579;DHT22;47998;53.242;6.386;2023-10-13T02:58:55;15.70;99.90
51579;DHT22;47998;53.242;6.386;2023-10-13T03:01:33;15.70;99.90
51579;DHT22;47998;53.242;6.386;2023-10-13T03:04:03;15.70;99.90
51579;DHT22;47998;53.242;6.386;2023-10-13T03:06:29;15.80;99.90
51579;DHT22;47998;53.242;6.386;2023-10-13T03:09:03;15.70;99.90
51579;DHT22;47998;53.242;6.386;2023-10-13T03:11:46;15.70;99.90
51579;DHT22;47998;53.242;6.386;2023-10-13T03:14:23;15.80;99.90
51579;DHT22;47998;53.242;6.386;2023-10-13T03:16:56;15.80;99.90
51579;DHT22;47998;53.242;6.386;2023-10-13T03:19:30;15.80;99.90
51579;DHT22;47998;53.242;6.386;2023-10-13T03:22:04;15.80;99.90
51579;DHT22;47998;53.242;6.386;2023-10-13T03:24:35;15.80;99.90
51579;DHT22;47998;53.242;6.386;2023-10-13T03:27:04;15.80;99.90
51579;DHT22;47998;53.242;6.386;2023-10-13T03:29:50;15.80;99.90
51579;DHT22;47998;53.242;6.386;2023-10-13T03:32:22;15.80;99.90
51579;DHT22;47998;53.242;6.386;2023-10-13T03:34:51;15.80;99.90
51579;DHT22;47998;53.242;6.386;2023-10-13T03:37:18;15.70;99.90
51579;DHT22;47998;53.242;6.386;2023-10-13T03:39:48;15.70;99.90
51579;DHT22;47998;53.242;6.386;2023-10-13T03:42:14;15.70;99.90
51579;DHT22;47998;53.242;6.386;2023-10-13T03:44:47;15.80;99.90
51579;DHT22;47998;53.242;6.386;2023-10-13T03:47:14;15.70;99.90
51579;DHT22;47998;53.242;6.386;2023-10-13T03:49:54;15.70;99.90
51579;DHT22;47998;53.242;6.386;2023-10-13T03:52:39;15.90;99.90
51579;DHT22;47998;53.242;6.386;2023-10-13T03:55:05;15.90;99.90
51579;DHT22;47998;53.242;6.386;2023-10-13T03:57:32;15.90;99.90
51579;DHT22;47998;53.242;6.386;2023-10-13T04:00:05;15.80;99.90
51579;DHT22;47998;53.242;6.386;2023-10-13T04:02:35;15.90;99.90
51579;DHT22;47998;53.242;6.386;2023-10-13T04:05:02;15.80;99.90
51579;DHT22;47998;53.242;6.386;2023-10-13T04:07:33;15.60;99.90
51579;DHT22;47998;53.242;6.386;2023-10-13T04:10:07;15.60;99.90
51579;DHT22;47998;53.242;6.386;2023-10-13T04:12:51;15.60;99.90
51579;DHT22;47998;53.242;6.386;2023-10-13T04:15:35;15.50;99.90
51579;DHT22;47998;53.242;6.386;2023-10-13T04:18:27;15.80;99.90
51579;DHT22;47998;53.242;6.386;2023-10-13T04:21:15;15.90;99.90
51579;DHT22;47998;53.242;6.386;2023-10-13T04:24:01;15.80;99.90
51579;DHT22;47998;53.242;6.386;2023-10-13T04:26:49;15.50;99.90
51579;DHT22;47998;53.242;6.386;2023-10-13T04:29:33;15.70;99.90
51579;DHT22;47998;53.242;6.386;2023-10-13T04:32:18;16.00;99.90
51579;DHT22;47998;53.242;6.386;2023-10-13T04:35:03;15.60;99.90
51579;DHT22;47998;53.242;6.386;2023-10-13T04:37:44;15.70;99.90
51579;DHT22;47998;53.242;6.386;2023-10-13T04:40:20;16.20;99.90
51579;DHT22;47998;53.242;6.386;2023-10-13T04:42:51;15.90;99.90
51579;DHT22;47998;53.242;6.386;2023-10-13T04:45:23;15.80;99.90
51579;DHT22;47998;53.242;6.386;2023-10-13T04:47:58;16.30;99.90
51579;DHT22;47998;53.242;6.386;2023-10-13T04:50:59;15.60;99.90
51579;DHT22;47998;53.242;6.386;2023-10-13T04:53:45;16.40;99.90
51579;DHT22;47998;53.242;6.386;2023-10-13T04:56:31;15.60;99.90
51579;DHT22;47998;53.242;6.386;2023-10-13T04:59:23;16.50;99.90
51579;DHT22;47998;53.242;6.386;2023-10-13T05:02:02;15.60;99.90
51579;DHT22;47998;53.242;6.386;2023-10-13T05:04:46;16.50;99.90
51579;DHT22;47998;53.242;6.386;2023-10-13T05:07:34;15.60;99.90
51579;DHT22;47998;53.242;6.386;2023-10-13T05:10:19;15.70;99.90
51579;DHT22;47998;53.242;6.386;2023-10-13T05:13:03;16.50;99.90
51579;DHT22;47998;53.242;6.386;2023-10-13T05:15:49;15.50;99.90
51579;DHT22;47998;53.242;6.386;2023-10-13T05:18:33;15.80;99.90
51579;DHT22;47998;53.242;6.386;2023-10-13T05:21:18;15.40;99.90
51579;DHT22;47998;53.242;6.386;2023-10-13T05:24:04;15.80;99.90
51579;DHT22;47998;53.242;6.386;2023-10-13T05:26:48;15.30;99.90
51579;DHT22;47998;53.242;6.386;2023-10-13T05:29:33;16.50;99.90
51579;DHT22;47998;53.242;6.386;2023-10-13T05:32:17;15.30;99.90
51579;DHT22;47998;53.242;6.386;2023-10-13T05:35:02;15.40;99.90
51579;DHT22;47998;53.242;6.386;2023-10-13T05:37:46;16.10;99.90
51579;DHT22;47998;53.242;6.386;2023-10-13T05:40:30;16.30;99.90
51579;DHT22;47998;53.242;6.386;2023-10-13T05:43:15;15.40;99.90
51579;DHT22;47998;53.242;6.386;2023-10-13T05:46:03;15.20;99.90
51579;DHT22;47998;53.242;6.386;2023-10-13T05:48:48;15.50;99.90
51579;DHT22;47998;53.242;6.386;2023-10-13T05:51:26;16.10;99.90
51579;DHT22;47998;53.242;6.386;2023-10-13T05:54:02;15.40;99.90
51579;DHT22;47998;53.242;6.386;2023-10-13T05:56:43;15.10;99.90
51579;DHT22;47998;53.242;6.386;2023-10-13T05:59:28;15.90;99.90
51579;DHT22;47998;53.242;6.386;2023-10-13T06:02:15;16.10;99.90
51579;DHT22;47998;53.242;6.386;2023-10-13T06:05:04;16.00;99.90
51579;DHT22;47998;53.242;6.386;2023-10-13T06:07:48;15.60;99.90
51579;DHT22;47998;53.242;6.386;2023-10-13T06:10:33;16.10;99.90
51579;DHT22;47998;53.242;6.386;2023-10-13T06:13:18;16.10;99.90
51579;DHT22;47998;53.242;6.386;2023-10-13T06:16:15;15.00;99.90
51579;DHT22;47998;53.242;6.386;2023-10-13T06:19:00;16.10;99.90
51579;DHT22;47998;53.242;6.386;2023-10-13T06:21:44;15.90;99.90
51579;DHT22;47998;53.242;6.386;2023-10-13T06:24:29;15.00;99.90
51579;DHT22;47998;53.242;6.386;2023-10-13T06:27:15;15.30;99.90
51579;DHT22;47998;53.242;6.386;2023-10-13T06:30:00;16.00;99.90
51579;DHT22;47998;53.242;6.386;2023-10-13T06:32:26;15.20;99.90
51579;DHT22;47998;53.242;6.386;2023-10-13T06:34:53;15.00;99.90
51579;DHT22;47998;53.242;6.386;2023-10-13T06:37:42;15.20;99.90
51579;DHT22;47998;53.242;6.386;2023-10-13T06:40:12;15.00;99.90
51579;DHT22;47998;53.242;6.386;2023-10-13T06:43:01;15.30;99.90
51579;DHT22;47998;53.242;6.386;2023-10-13T06:45:43;16.20;99.90
51579;DHT22;47998;53.242;6.386;2023-10-13T06:48:16;16.30;99.90
51579;DHT22;47998;53.242;6.386;2023-10-13T06:50:50;16.20;99.90
51579;DHT22;47998;53.242;6.386;2023-10-13T06:53:18;15.40;99.90
51579;DHT22;47998;53.242;6.386;2023-10-13T06:55:44;15.50;99.90
51579;DHT22;47998;53.242;6.386;2023-10-13T06:58:15;16.20;99.90
51579;DHT22;47998;53.242;6.386;2023-10-13T07:00:43;16.40;99.90
51579;DHT22;47998;53.242;6.386;2023-10-13T07:03:25;16.40;99.90
51579;DHT22;47998;53.242;6.386;2023-10-13T07:05:51;16.20;99.90
51579;DHT22;47998;53.242;6.386;2023-10-13T07:08:18;16.30;99.90
51579;DHT22;47998;53.242;6.386;2023-10-13T07:10:54;16.30;99.90
51579;DHT22;47998;53.242;6.386;2023-10-13T07:13:43;15.50;99.90
51579;DHT22;47998;53.242;6.386;2023-10-13T07:16:15;15.50;99.90
51579;DHT22;47998;53.242;6.386;2023-10-13T07:18:41;16.30;99.90
51579;DHT22;47998;53.242;6.386;2023-10-13T07:21:18;15.40;99.90
51579;DHT22;47998;53.242;6.386;2023-10-13T07:23:59;15.70;99.90
51579;DHT22;47998;53.242;6.386;2023-10-13T07:26:35;16.20;99.90
51579;DHT22;47998;53.242;6.386;2023-10-13T07:29:11;15.40;99.90
51579;DHT22;47998;53.242;6.386;2023-10-13T07:31:37;15.70;99.90
51579;DHT22;47998;53.242;6.386;2023-10-13T07:34:06;15.40;99.90
51579;DHT22;47998;53.242;6.386;2023-10-13T07:36:42;16.20;99.90
51579;DHT22;47998;53.242;6.386;2023-10-13T07:39:08;16.20;99.90
51579;DHT22;47998;53.242;6.386;2023-10-13T07:41:51;15.40;99.90
51579;DHT22;47998;53.242;6.386;2023-10-13T07:44:29;15.80;99.90
51579;DHT22;47998;53.242;6.386;2023-10-13T07:47:02;15.30;99.90
51579;DHT22;47998;53.242;6.386;2023-10-13T07:49:31;15.50;99.90
51579;DHT22;47998;53.242;6.386;2023-10-13T07:51:59;15.30;99.90
51579;DHT22;47998;53.242;6.386;2023-10-13T07:54:26;15.20;99.90
51579;DHT22;47998;53.242;6.386;2023-10-13T07:56:52;15.60;99.90
51579;DHT22;47998;53.242;6.386;2023-10-13T07:59:21;15.80;99.90
51579;DHT22;47998;53.242;6.386;2023-10-13T08:01:48;16.00;99.90
51579;DHT22;47998;53.242;6.386;2023-10-13T08:04:34;16.00;99.90
51579;DHT22;47998;53.242;6.386;2023-10-13T08:07:02;15.20;99.90
51579;DHT22;47998;53.242;6.386;2023-10-13T08:09:39;15.30;99.90
51579;DHT22;47998;53.242;6.386;2023-10-13T08:12:09;15.20;99.90
51579;DHT22;47998;53.242;6.386;2023-10-13T08:14:38;15.80;99.90
51579;DHT22;47998;53.242;6.386;2023-10-13T08:17:07;15.30;99.90
51579;DHT22;47998;53.242;6.386;2023-10-13T08:19:36;15.50;99.90
51579;DHT22;47998;53.242;6.386;2023-10-13T08:22:06;15.80;99.90
51579;DHT22;47998;53.242;6.386;2023-10-13T08:24:47;15.60;99.90
51579;DHT22;47998;53.242;6.386;2023-10-13T08:27:15;15.60;99.90
51579;DHT22;47998;53.242;6.386;2023-10-13T08:29:47;15.90;99.90
51579;DHT22;47998;53.242;6.386;2023-10-13T08:32:29;16.40;99.90
51579;DHT22;47998;53.242;6.386;2023-10-13T08:34:59;15.90;99.90
51579;DHT22;47998;53.242;6.386;2023-10-13T08:37:45;16.30;99.90
51579;DHT22;47998;53.242;6.386;2023-10-13T08:40:27;16.10;99.90
51579;DHT22;47998;53.242;6.386;2023-10-13T08:43:12;16.40;99.90
51579;DHT22;47998;53.242;6.386;2023-10-13T08:45:40;15.90;99.90
51579;DHT22;47998;53.242;6.386;2023-10-13T08:48:12;16.40;99.90
51579;DHT22;47998;53.242;6.386;2023-10-13T08:50:46;16.50;99.90
51579;DHT22;47998;53.242;6.386;2023-10-13T08:53:26;15.90;99.90
51579;DHT22;47998;53.242;6.386;2023-10-13T08:56:13;15.90;99.90
51579;DHT22;47998;53.242;6.386;2023-10-13T08:58:45;16.30;99.90
51579;DHT22;47998;53.242;6.386;2023-10-13T09:01:34;16.00;99.90
51579;DHT22;47998;53.242;6.386;2023-10-13T09:04:18;16.50;99.90
51579;DHT22;47998;53.242;6.386;2023-10-13T09:07:10;16.70;99.90
51579;DHT22;47998;53.242;6.386;2023-10-13T09:12:25;16.20;99.90
51579;DHT22;47998;53.242;6.386;2023-10-13T09:15:05;16.30;99.90
51579;DHT22;47998;53.242;6.386;2023-10-13T09:17:47;16.50;99.90
51579;DHT22;47998;53.242;6.386;2023-10-13T09:20:27;16.90;99.90
51579;DHT22;47998;53.242;6.386;2023-10-13T09:23:15;16.90;99.90
51579;DHT22;47998;53.242;6.386;2023-10-13T09:25:51;17.10;99.90
51579;DHT22;47998;53.242;6.386;2023-10-13T09:28:24;17.20;99.90
51579;DHT22;47998;53.242;6.386;2023-10-13T09:30:54;17.20;99.90
51579;DHT22;47998;53.242;6.386;2023-10-13T09:33:27;17.20;99.90
51579;DHT22;47998;53.242;6.386;2023-10-13T09:36:06;17.20;99.90
51579;DHT22;47998;53.242;6.386;2023-10-13T09:38:34;17.30;99.90
51579;DHT22;47998;53.242;6.386;2023-10-13T09:41:05;17.40;99.90
51579;DHT22;47998;53.242;6.386;2023-10-13T09:43:46;17.50;99.90
51579;DHT22;47998;53.242;6.386;2023-10-13T09:46:19;17.40;99.90
51579;DHT22;47998;53.242;6.386;2023-10-13T09:48:49;17.60;99.90
51579;DHT22;47998;53.242;6.386;2023-10-13T09:51:33;17.60;99.90
51579;DHT22;47998;53.242;6.386;2023-10-13T09:54:22;17.80;99.90
51579;DHT22;47998;53.242;6.386;2023-10-13T09:56:57;18.10;99.90
51579;DHT22;47998;53.242;6.386;2023-10-13T09:59:37;18.30;99.90
51579;DHT22;47998;53.242;6.386;2023-10-13T10:02:08;18.30;99.90
51579;DHT22;47998;53.242;6.386;2023-10-13T10:04:35;18.40;99.90
51579;DHT22;47998;53.242;6.386;2023-10-13T10:07:26;18.40;99.90
51579;DHT22;47998;53.242;6.386;2023-10-13T10:10:01;18.40;99.90
51579;DHT22;47998;53.242;6.386;2023-10-13T10:12:38;18.50;99.90
51579;DHT22;47998;53.242;6.386;2023-10-13T10:15:28;18.50;99.90
51579;DHT22;47998;53.242;6.386;2023-10-13T10:17:56;18.40;99.90
51579;DHT22;47998;53.242;6.386;2023-10-13T10:20:33;18.50;99.90
51579;DHT22;47998;53.242;6.386;2023-10-13T10:23:08;18.40;99.90
51579;DHT22;47998;53.242;6.386;2023-10-13T10:25:43;18.40;99.90
51579;DHT22;47998;53.242;6.386;2023-10-13T10:28:11;18.40;99.90
51579;DHT22;47998;53.242;6.386;2023-10-13T10:30:41;18.50;99.90
51579;DHT22;47998;53.242;6.386;2023-10-13T10:33:09;18.60;99.90
51579;DHT22;47998;53.242;6.386;2023-10-13T10:35:42;19.00;99.90
51579;DHT22;47998;53.242;6.386;2023-10-13T10:41:02;19.50;99.90
51579;DHT22;47998;53.242;6.386;2023-10-13T10:46:13;19.40;99.90
51579;DHT22;47998;53.242;6.386;2023-10-13T10:48:40;19.50;99.90
51579;DHT22;47998;53.242;6.386;2023-10-13T10:51:09;19.40;99.90
51579;DHT22;47998;53.242;6.386;2023-10-13T10:53:41;19.40;99.90
51579;DHT22;47998;53.242;6.386;2023-10-13T10:56:15;19.30;99.90
51579;DHT22;47998;53.242;6.386;2023-10-13T10:59:00;19.30;99.90
51579;DHT22;47998;53.242;6.386;2023-10-13T11:01:27;19.40;99.90
51579;DHT22;47998;53.242;6.386;2023-10-13T11:04:03;19.50;99.90
51579;DHT22;47998;53.242;6.386;2023-10-13T11:06:51;20.20;99.90
51579;DHT22;47998;53.242;6.386;2023-10-13T11:09:36;20.80;99.90
51579;DHT22;47998;53.242;6.386;2023-10-13T11:12:12;20.70;99.90
51579;DHT22;47998;53.242;6.386;2023-10-13T11:14:45;20.20;99.90
51579;DHT22;47998;53.242;6.386;2023-10-13T11:17:20;20.00;99.90
51579;DHT22;47998;53.242;6.386;2023-10-13T11:19:50;19.70;99.90
51579;DHT22;47998;53.242;6.386;2023-10-13T11:22:20;19.60;99.90
51579;DHT22;47998;53.242;6.386;2023-10-13T11:24:58;19.40;99.90
51579;DHT22;47998;53.242;6.386;2023-10-13T11:27:31;19.40;99.90
51579;DHT22;47998;53.242;6.386;2023-10-13T11:30:20;19.50;99.90
51579;DHT22;47998;53.242;6.386;2023-10-13T11:33:19;19.60;99.90
51579;DHT22;47998;53.242;6.386;2023-10-13T11:35:55;19.80;99.90
51579;DHT22;47998;53.242;6.386;2023-10-13T11:38:28;19.90;99.90
51579;DHT22;47998;53.242;6.386;2023-10-13T11:41:14;19.90;99.90
51579;DHT22;47998;53.242;6.386;2023-10-13T11:46:10;19.50;99.90
51579;DHT22;47998;53.242;6.386;2023-10-13T11:48:40;19.20;99.90
51579;DHT22;47998;53.242;6.386;2023-10-13T11:51:16;18.90;99.90
51579;DHT22;47998;53.242;6.386;2023-10-13T11:53:58;18.80;99.90
51579;DHT22;47998;53.242;6.386;2023-10-13T11:56:24;18.80;99.90
51579;DHT22;47998;53.242;6.386;2023-10-13T11:58:50;18.70;99.90
51579;DHT22;47998;53.242;6.386;2023-10-13T12:01:17;18.30;99.90
51579;DHT22;47998;53.242;6.386;2023-10-13T12:03:45;18.10;99.90
51579;DHT22;47998;53.242;6.386;2023-10-13T12:06:31;18.00;99.90
51579;DHT22;47998;53.242;6.386;2023-10-13T12:09:07;18.10;99.90
51579;DHT22;47998;53.242;6.386;2023-10-13T12:12:05;18.20;99.90
51579;DHT22;47998;53.242;6.386;2023-10-13T12:14:31;18.40;99.90
51579;DHT22;47998;53.242;6.386;2023-10-13T12:17:04;18.50;99.90
51579;DHT22;47998;53.242;6.386;2023-10-13T12:19:30;18.70;99.90
51579;DHT22;47998;53.242;6.386;2023-10-13T12:21:57;18.80;99.90
51579;DHT22;47998;53.242;6.386;2023-10-13T12:24:29;18.80;99.90
51579;DHT22;47998;53.242;6.386;2023-10-13T12:27:01;18.90;99.90
51579;DHT22;47998;53.242;6.386;2023-10-13T12:29:28;18.90;99.90
51579;DHT22;47998;53.242;6.386;2023-10-13T12:32:00;18.90;99.90
51579;DHT22;47998;53.242;6.386;2023-10-13T12:34:37;18.90;99.90
51579;DHT22;47998;53.242;6.386;2023-10-13T12:37:31;18.60;99.90
51579;DHT22;47998;53.242;6.386;2023-10-13T12:43:00;17.90;99.90
51579;DHT22;47998;53.242;6.386;2023-10-13T12:45:48;17.70;99.90
51579;DHT22;47998;53.242;6.386;2023-10-13T12:48:34;17.70;99.90
51579;DHT22;47998;53.242;6.386;2023-10-13T12:51:19;17.60;99.90
51579;DHT22;47998;53.242;6.386;2023-10-13T12:53:55;17.70;99.90
51579;DHT22;47998;53.242;6.386;2023-10-13T12:56:26;17.80;99.90
51579;DHT22;47998;53.242;6.386;2023-10-13T12:58:52;17.70;99.90
51579;DHT22;47998;53.242;6.386;2023-10-13T13:01:22;17.70;99.90
51579;DHT22;47998;53.242;6.386;2023-10-13T13:03:49;17.60;99.90
51579;DHT22;47998;53.242;6.386;2023-10-13T13:06:23;17.70;99.90
51579;DHT22;47998;53.242;6.386;2023-10-13T13:08:56;17.60;99.90
51579;DHT22;47998;53.242;6.386;2023-10-13T13:11:23;17.60;99.90
51579;DHT22;47998;53.242;6.386;2023-10-13T13:13:49;17.40;99.90
51579;DHT22;47998;53.242;6.386;2023-10-13T13:16:18;17.40;99.90
51579;DHT22;47998;53.242;6.386;2023-10-13T13:18:50;17.30;99.90
51579;DHT22;47998;53.242;6.386;2023-10-13T13:21:16;17.20;99.90
51579;DHT22;47998;53.242;6.386;2023-10-13T13:23:53;17.20;99.90
51579;DHT22;47998;53.242;6.386;2023-10-13T13:26:22;17.20;99.90
51579;DHT22;47998;53.242;6.386;2023-10-13T13:28:49;17.20;99.90
51579;DHT22;47998;53.242;6.386;2023-10-13T13:31:22;17.20;99.90
51579;DHT22;47998;53.242;6.386;2023-10-13T13:33:52;17.20;99.90
51579;DHT22;47998;53.242;6.386;2023-10-13T13:36:18;17.20;99.90
51579;DHT22;47998;53.242;6.386;2023-10-13T13:38:46;17.20;99.90
51579;DHT22;47998;53.242;6.386;2023-10-13T13:41:17;17.20;99.90
51579;DHT22;47998;53.242;6.386;2023-10-13T13:43:47;17.20;99.90
51579;DHT22;47998;53.242;6.386;2023-10-13T13:46:25;17.20;99.90
51579;DHT22;47998;53.242;6.386;2023-10-13T13:48:59;17.20;99.90
51579;DHT22;47998;53.242;6.386;2023-10-13T13:51:29;17.20;99.90
51579;DHT22;47998;53.242;6.386;2023-10-13T13:53:57;17.30;99.90
51579;DHT22;47998;53.242;6.386;2023-10-13T13:56:25;17.30;99.90
51579;DHT22;47998;53.242;6.386;2023-10-13T13:58:51;17.30;99.90
51579;DHT22;47998;53.242;6.386;2023-10-13T14:01:18;17.40;99.90
51579;DHT22;47998;53.242;6.386;2023-10-13T14:03:46;17.50;99.90
51579;DHT22;47998;53.242;6.386;2023-10-13T14:06:13;17.70;99.90
51579;DHT22;47998;53.242;6.386;2023-10-13T14:08:56;17.80;99.90
51579;DHT22;47998;53.242;6.386;2023-10-13T14:11:32;17.90;99.90
51579;DHT22;47998;53.242;6.386;2023-10-13T14:14:00;18.00;99.90
51579;DHT22;47998;53.242;6.386;2023-10-13T14:16:30;18.00;99.90
51579;DHT22;47998;53.242;6.386;2023-10-13T14:18:59;18.00;99.90
51579;DHT22;47998;53.242;6.386;2023-10-13T14:21:27;18.10;99.90
51579;DHT22;47998;53.242;6.386;2023-10-13T14:23:53;18.10;99.90
51579;DHT22;47998;53.242;6.386;2023-10-13T14:26:20;18.10;99.90
51579;DHT22;47998;53.242;6.386;2023-10-13T14:28:51;18.10;99.90
51579;DHT22;47998;53.242;6.386;2023-10-13T14:31:34;18.10;99.90
51579;DHT22;47998;53.242;6.386;2023-10-13T14:34:03;18.10;99.90
51579;DHT22;47998;53.242;6.386;2023-10-13T14:36:29;18.10;99.90
51579;DHT22;47998;53.242;6.386;2023-10-13T14:39:00;18.20;99.90
51579;DHT22;47998;53.242;6.386;2023-10-13T14:41:26;18.20;99.90
51579;DHT22;47998;53.242;6.386;2023-10-13T14:43:53;18.30;99.90
51579;DHT22;47998;53.242;6.386;2023-10-13T14:46:22;18.40;99.90
51579;DHT22;47998;53.242;6.386;2023-10-13T14:48:53;18.40;99.90
51579;DHT22;47998;53.242;6.386;2023-10-13T14:51:19;18.30;99.90
51579;DHT22;47998;53.242;6.386;2023-10-13T14:53:48;18.30;99.90
51579;DHT22;47998;53.242;6.386;2023-10-13T14:56:16;18.30;99.90
51579;DHT22;47998;53.242;6.386;2023-10-13T14:58:43;18.30;99.90
51579;DHT22;47998;53.242;6.386;2023-10-13T15:01:17;18.30;99.90
51579;DHT22;47998;53.242;6.386;2023-10-13T15:03:43;18.30;99.90
51579;DHT22;47998;53.242;6.386;2023-10-13T15:06:20;18.30;99.90
51579;DHT22;47998;53.242;6.386;2023-10-13T15:08:47;18.40;99.90
51579;DHT22;47998;53.242;6.386;2023-10-13T15:11:13;18.40;99.90
51579;DHT22;47998;53.242;6.386;2023-10-13T15:13:40;18.30;99.90
51579;DHT22;47998;53.242;6.386;2023-10-13T15:16:16;18.20;99.90
51579;DHT22;47998;53.242;6.386;2023-10-13T15:18:45;18.20;99.90
51579;DHT22;47998;53.242;6.386;2023-10-13T15:21:25;18.10;99.90
51579;DHT22;47998;53.242;6.386;2023-10-13T15:23:58;18.00;99.90
51579;DHT22;47998;53.242;6.386;2023-10-13T15:26:32;17.90;99.90
51579;DHT22;47998;53.242;6.386;2023-10-13T15:29:04;18.00;99.90
51579;DHT22;47998;53.242;6.386;2023-10-13T15:31:35;18.00;99.90
51579;DHT22;47998;53.242;6.386;2023-10-13T15:34:01;18.10;99.90
51579;DHT22;47998;53.242;6.386;2023-10-13T15:36:43;18.10;99.90
51579;DHT22;47998;53.242;6.386;2023-10-13T15:39:09;18.10;99.90
51579;DHT22;47998;53.242;6.386;2023-10-13T15:41:36;18.10;99.90
51579;DHT22;47998;53.242;6.386;2023-10-13T15:44:11;18.10;99.90
51579;DHT22;47998;53.242;6.386;2023-10-13T15:46:39;18.10;99.90
51579;DHT22;47998;53.242;6.386;2023-10-13T15:49:05;18.10;99.90
51579;DHT22;47998;53.242;6.386;2023-10-13T15:51:34;18.10;99.90
51579;DHT22;47998;53.242;6.386;2023-10-13T15:54:03;18.10;99.90
51579;DHT22;47998;53.242;6.386;2023-10-13T15:56:29;18.10;99.90
51579;DHT22;47998;53.242;6.386;2023-10-13T15:59:01;18.10;99.90
51579;DHT22;47998;53.242;6.386;2023-10-13T16:01:27;18.10;99.90
51579;DHT22;47998;53.242;6.386;2023-10-13T16:03:54;18.10;99.90
51579;DHT22;47998;53.242;6.386;2023-10-13T16:06:20;18.00;99.90
51579;DHT22;47998;53.242;6.386;2023-10-13T16:08:51;18.00;99.90
51579;DHT22;47998;53.242;6.386;2023-10-13T16:11:18;17.90;99.90
51579;DHT22;47998;53.242;6.386;2023-10-13T16:13:48;17.90;99.90
51579;DHT22;47998;53.242;6.386;2023-10-13T16:16:17;17.80;99.90
51579;DHT22;47998;53.242;6.386;2023-10-13T16:18:46;17.80;99.90
51579;DHT22;47998;53.242;6.386;2023-10-13T16:21:13;17.80;99.90
51579;DHT22;47998;53.242;6.386;2023-10-13T16:23:44;17.80;99.90
51579;DHT22;47998;53.242;6.386;2023-10-13T16:26:18;17.80;99.90
51579;DHT22;47998;53.242;6.386;2023-10-13T16:28:51;17.70;99.90